Latest Weather Observations for Fort Denison

IDN60901

Issued at 10:31 am EST Wednesday 31 August 2016 (issued every 10 minutes, with the page automatically refreshed every 10 minutes)

About weather observations | Map of Sydney area stations | Latest observations for Sydney area | Other Formats
Station Details ID: 066022 Name: FORT DENISON Lat: -33.86 Lon: 151.23 Height: 5.0 m
Data from the previous 72 hours. | See also: Recent months for locations in New South Wales
Date/Time
EST
Temp
°C
App
Temp
°C
Dew
Point
°C
Rel
Hum
%
Delta-T
°C
Wind Press
QNH
hPa
Press
MSL
hPa
Rain since
9am
mm
Dir  Spd
km/h
Gust
km/h
Spd
kts
Gust
kts
31/10:30am - - - - - N 20 28 11 15 - - -
31/10:00am - - - - - N 15 22 8 12 - - -
31/09:30am - - - - - NNE 17 22 9 12 - - -
31/09:00am - - - - - N 20 28 11 15 - - -
31/08:30am - - - - - N 19 24 10 13 - - -
31/08:00am - - - - - NNE 15 19 8 10 - - -
31/07:30am - - - - - NNE 13 17 7 9 - - -
31/07:00am - - - - - N 2 7 1 4 - - -
31/06:30am - - - - - ESE 6 7 3 4 - - -
31/06:00am - - - - - ESE 2 6 1 3 - - -
31/05:30am - - - - - E 2 6 1 3 - - -
31/05:00am - - - - - N 4 7 2 4 - - -
31/04:30am - - - - - E 4 7 2 4 - - -
31/04:00am - - - - - E 6 9 3 5 - - -
31/03:30am - - - - - W 2 4 1 2 - - -
31/03:00am - - - - - WSW 6 7 3 4 - - -
31/02:30am - - - - - NE 4 7 2 4 - - -
31/02:00am - - - - - ENE 4 7 2 4 - - -
31/01:30am - - - - - N 6 9 3 5 - - -
31/01:00am - - - - - NE 4 9 2 5 - - -
31/12:30am - - - - - N 6 13 3 7 - - -
31/12:00am - - - - - NE 9 17 5 9 - - -
 
Date/Time
EST
Temp
°C
App
Temp
°C
Dew
Point
°C
Rel
Hum
%
Delta-T
°C
Wind Press
QNH
hPa
Press
MSL
hPa
Rain since
9am
mm
Dir  Spd
km/h
Gust
km/h
Spd
kts
Gust
kts
30/11:30pm - - - - - NNE 13 17 7 9 - - -
30/11:00pm - - - - - NNE 11 15 6 8 - - -
30/10:30pm - - - - - NNE 17 22 9 12 - - -
30/10:00pm - - - - - NNE 13 17 7 9 - - -
30/09:30pm - - - - - NNE 19 24 10 13 - - -
30/09:00pm - - - - - NNE 22 30 12 16 - - -
30/08:30pm - - - - - NNE 20 30 11 16 - - -
30/08:00pm - - - - - NNE 17 28 9 15 - - -
30/07:30pm - - - - - NE 19 28 10 15 - - -
30/07:00pm - - - - - NNE 17 26 9 14 - - -
30/06:30pm - - - - - NNE 20 28 11 15 - - -
30/06:00pm - - - - - NNE 17 24 9 13 - - -
30/05:30pm - - - - - NNE 17 26 9 14 - - -
30/05:00pm - - - - - ENE 11 19 6 10 - - -
30/04:30pm - - - - - ENE 13 17 7 9 - - -
30/04:00pm - - - - - ENE 13 19 7 10 - - -
30/03:30pm - - - - - ENE 15 20 8 11 - - -
30/03:00pm - - - - - ENE 15 20 8 11 - - -
30/02:30pm - - - - - NE 17 24 9 13 - - -
30/02:00pm - - - - - ENE 17 22 9 12 - - -
30/01:30pm - - - - - ENE 13 17 7 9 - - -
30/01:00pm - - - - - E 13 15 7 8 - - -
30/12:30pm - - - - - ESE 6 9 3 5 - - -
30/12:00pm - - - - - WNW 6 7 3 4 - - -
30/11:30am - - - - - W 11 13 6 7 - - -
30/11:00am - - - - - W 15 19 8 10 - - -
30/10:30am - - - - - W 15 17 8 9 - - -
30/10:00am - - - - - W 11 13 6 7 - - -
30/09:30am - - - - - W 13 15 7 8 - - -
30/09:00am - - - - - W 17 20 9 11 - - -
30/08:30am - - - - - W 17 19 9 10 - - -
30/08:00am - - - - - W 11 13 6 7 - - -
30/07:30am - - - - - W 15 19 8 10 - - -
30/07:00am - - - - - W 9 11 5 6 - - -
30/06:30am - - - - - W 9 13 5 7 - - -
30/06:00am - - - - - W 11 15 6 8 - - -
30/05:30am - - - - - W 17 19 9 10 - - -
30/05:00am - - - - - WNW 9 11 5 6 - - -
30/04:30am - - - - - W 13 17 7 9 - - -
30/04:00am - - - - - W 15 17 8 9 - - -
30/03:30am - - - - - WNW 9 11 5 6 - - -
30/03:00am - - - - - W 11 13 6 7 - - -
30/02:30am - - - - - W 13 17 7 9 - - -
30/02:00am - - - - - W 9 11 5 6 - - -
30/01:30am - - - - - WNW 6 9 3 5 - - -
30/01:00am - - - - - WNW 11 13 6 7 - - -
30/12:30am - - - - - WNW 4 9 2 5 - - -
30/12:00am - - - - - W 13 15 7 8 - - -
 
Date/Time
EST
Temp
°C
App
Temp
°C
Dew
Point
°C
Rel
Hum
%
Delta-T
°C
Wind Press
QNH
hPa
Press
MSL
hPa
Rain since
9am
mm
Dir  Spd
km/h
Gust
km/h
Spd
kts
Gust
kts
29/11:30pm - - - - - W 15 19 8 10 - - -
29/11:00pm - - - - - NNW 6 9 3 5 - - -
29/10:30pm - - - - - NNE 6 7 3 4 - - -
29/10:00pm - - - - - NNW 4 6 2 3 - - -
29/09:30pm - - - - - N 6 7 3 4 - - -
29/09:00pm - - - - - N 6 9 3 5 - - -
29/08:30pm - - - - - NE 4 6 2 3 - - -
29/08:00pm - - - - - N 4 4 2 2 - - -
29/07:30pm - - - - - NE 4 6 2 3 - - -
29/07:00pm - - - - - ENE 6 7 3 4 - - -
29/06:30pm - - - - - NNE 13 17 7 9 - - -
29/06:00pm - - - - - NNE 9 13 5 7 - - -
29/05:30pm - - - - - ENE 7 9 4 5 - - -
29/05:00pm - - - - - ENE 13 17 7 9 - - -
29/04:30pm - - - - - E 13 15 7 8 - - -
29/04:00pm - - - - - ENE 13 19 7 10 - - -
29/03:30pm - - - - - W 6 9 3 5 - - -
29/03:00pm - - - - - W 9 15 5 8 - - -
29/02:30pm - - - - - W 11 15 6 8 - - -
29/02:00pm - - - - - W 9 11 5 6 - - -
29/01:30pm - - - - - W 9 11 5 6 - - -
29/01:00pm - - - - - W 11 15 6 8 - - -
29/12:30pm - - - - - W 11 15 6 8 - - -
29/12:00pm - - - - - W 11 13 6 7 - - -
29/11:30am - - - - - W 9 13 5 7 - - -
29/11:00am - - - - - W 15 20 8 11 - - -
29/10:30am - - - - - WNW 17 20 9 11 - - -
29/10:00am - - - - - WNW 15 17 8 9 - - -
29/09:30am - - - - - WNW 15 19 8 10 - - -
29/09:00am - - - - - W 17 19 9 10 - - -
29/08:30am - - - - - W 15 19 8 10 - - -
29/08:00am - - - - - W 17 22 9 12 - - -
29/07:30am - - - - - W 17 20 9 11 - - -
29/07:00am - - - - - WNW 15 19 8 10 - - -
29/06:30am - - - - - W 13 17 7 9 - - -
29/06:00am - - - - - W 20 22 11 12 - - -
29/05:30am - - - - - W 19 22 10 12 - - -
29/05:00am - - - - - W 20 22 11 12 - - -
29/04:30am - - - - - W 17 19 9 10 - - -
29/04:00am - - - - - W 17 20 9 11 - - -
29/03:30am - - - - - W 19 22 10 12 - - -
29/03:00am - - - - - W 19 20 10 11 - - -
29/02:30am - - - - - W 19 20 10 11 - - -
29/02:00am - - - - - W 17 19 9 10 - - -
29/01:30am - - - - - W 19 22 10 12 - - -
29/01:00am - - - - - W 17 19 9 10 - - -
29/12:30am - - - - - W 17 19 9 10 - - -
29/12:00am - - - - - W 13 17 7 9 - - -
 
Date/Time
EST
Temp
°C
App
Temp
°C
Dew
Point
°C
Rel
Hum
%
Delta-T
°C
Wind Press
QNH
hPa
Press
MSL
hPa
Rain since
9am
mm
Dir  Spd
km/h
Gust
km/h
Spd
kts
Gust
kts
28/11:30pm - - - - - W 11 15 6 8 - - -
28/11:00pm - - - - - W 11 11 6 6 - - -
28/10:30pm - - - - - W 11 13 6 7 - - -
28/10:00pm - - - - - W 15 17 8 9 - - -
28/09:30pm - - - - - WNW 13 22 7 12 - - -
28/09:00pm - - - - - WNW 7 11 4 6 - - -
28/08:30pm - - - - - WNW 7 11 4 6 - - -
28/08:00pm - - - - - N 4 6 2 3 - - -
28/07:30pm - - - - - N 4 4 2 2 - - -
28/07:00pm - - - - - NNW 6 7 3 4 - - -
28/06:30pm - - - - - ENE 4 6 2 3 - - -
28/06:00pm - - - - - ESE 7 9 4 5 - - -
28/05:30pm - - - - - ESE 11 17 6 9 - - -
28/05:00pm - - - - - SSW 9 15 5 8 - - -
28/04:30pm - - - - - SSE 11 15 6 8 - - -
28/04:00pm - - - - - SE 13 20 7 11 - - -
28/03:30pm - - - - - SE 13 20 7 11 - - -
28/03:00pm - - - - - ESE 17 20 9 11 - - -
28/02:30pm - - - - - ESE 19 22 10 12 - - -
28/02:00pm - - - - - ESE 17 22 9 12 - - -
28/01:30pm - - - - - ESE 19 22 10 12 - - -
28/01:00pm - - - - - WSW 13 19 7 10 - - -
28/12:30pm - - - - - W 11 20 6 11 - - -
28/12:00pm - - - - - WNW 17 24 9 13 - - -
28/11:30am - - - - - W 15 24 8 13 - - -
28/11:00am - - - - - WNW 15 19 8 10 - - -

Latest Capital City Observations: Canberra | Sydney | Melbourne | Brisbane | Adelaide | Perth | Hobart | Darwin

Other Formats:

Comma delimited format used in spreadsheet applications
http://www.bom.gov.au/fwo/IDN60901/IDN60901.94769.axf

JavaScript Object Notation format (JSON) in row-major order
http://www.bom.gov.au/fwo/IDN60901/IDN60901.94769.json